createdAt,value
2022-12-31T00:00:01.544Z,75.70
2022-12-31T00:02:28.477Z,76.69
2022-12-31T00:04:55.487Z,76.87
2022-12-31T00:07:22.293Z,76.37
2022-12-31T00:09:49.020Z,76.47
2022-12-31T00:12:15.803Z,75.99
2022-12-31T00:14:42.560Z,76.48
2022-12-31T00:17:09.475Z,76.56
2022-12-31T00:19:36.459Z,76.25
2022-12-31T00:22:03.297Z,76.02
2022-12-31T00:24:31.219Z,75.85
2022-12-31T00:26:58.055Z,76.40
2022-12-31T00:29:24.951Z,76.01
2022-12-31T00:31:51.729Z,76.38
2022-12-31T00:34:18.543Z,76.13
2022-12-31T00:36:46.243Z,76.22
2022-12-31T00:39:13.243Z,76.08
2022-12-31T00:41:40.263Z,75.84
2022-12-31T00:44:07.193Z,75.73
2022-12-31T00:49:00.586Z,75.04
2022-12-31T00:51:27.913Z,74.94
2022-12-31T00:53:55.955Z,75.22
2022-12-31T00:56:25.862Z,74.80
2022-12-31T00:58:52.756Z,75.42
2022-12-31T01:01:21.758Z,74.79
2022-12-31T01:03:51.207Z,75.06
2022-12-31T01:06:18.942Z,75.33
2022-12-31T01:08:48.290Z,75.52
2022-12-31T01:11:24.053Z,74.81
2022-12-31T01:14:16.867Z,75.03
2022-12-31T01:16:46.845Z,75.22
2022-12-31T01:19:17.205Z,74.72
2022-12-31T01:21:45.304Z,74.80
2022-12-31T01:24:12.806Z,74.99
2022-12-31T01:26:40.048Z,74.53
2022-12-31T01:29:07.528Z,73.96
2022-12-31T01:31:34.949Z,73.94
2022-12-31T01:34:02.177Z,73.85
2022-12-31T01:36:31.217Z,74.00
2022-12-31T01:38:59.286Z,74.08
2022-12-31T01:41:35.416Z,73.54
2022-12-31T01:44:11.279Z,74.14
2022-12-31T01:46:45.057Z,73.42
2022-12-31T01:49:53.670Z,73.13
2022-12-31T01:52:31.346Z,73.80
2022-12-31T01:55:27.879Z,73.93
2022-12-31T01:57:58.248Z,74.58
2022-12-31T02:00:25.309Z,75.15
2022-12-31T02:02:52.715Z,75.14
2022-12-31T02:05:24.812Z,75.39
2022-12-31T02:07:52.300Z,75.07
2022-12-31T02:10:19.193Z,76.19
2022-12-31T02:12:46.657Z,76.63
2022-12-31T02:15:13.536Z,77.05
2022-12-31T02:18:20.907Z,77.22
2022-12-31T02:21:03.829Z,77.35
2022-12-31T02:23:42.159Z,78.03
2022-12-31T02:26:46.729Z,77.11
2022-12-31T02:29:37.773Z,77.50
2022-12-31T02:32:43.083Z,77.68
2022-12-31T02:35:17.425Z,76.81
2022-12-31T02:37:48.491Z,77.70
2022-12-31T02:40:18.373Z,77.97
2022-12-31T02:42:48.694Z,77.65
2022-12-31T02:45:20.945Z,77.43
2022-12-31T02:48:31.344Z,77.94
2022-12-31T02:51:11.006Z,77.61
2022-12-31T02:53:55.476Z,77.82
2022-12-31T02:56:28.293Z,78.45
2022-12-31T02:59:21.226Z,78.07
2022-12-31T03:02:16.930Z,78.20
2022-12-31T03:04:53.496Z,78.10
2022-12-31T03:07:24.713Z,78.24
2022-12-31T03:09:51.630Z,78.16
2022-12-31T03:12:40.412Z,77.97
2022-12-31T03:15:19.963Z,78.14
2022-12-31T03:18:05.526Z,78.09
2022-12-31T03:20:53.495Z,76.97
2022-12-31T03:23:26.212Z,77.59
2022-12-31T03:25:53.537Z,78.55
2022-12-31T03:28:23.201Z,77.89
2022-12-31T03:30:53.711Z,76.94
2022-12-31T03:33:21.349Z,77.68
2022-12-31T03:35:49.014Z,77.96
2022-12-31T03:38:16.732Z,77.86
2022-12-31T03:40:46.694Z,78.15
2022-12-31T03:43:13.921Z,79.12
2022-12-31T03:45:41.010Z,79.99
2022-12-31T03:48:09.435Z,79.69
2022-12-31T03:50:36.609Z,80.03
2022-12-31T03:53:03.514Z,79.68
2022-12-31T03:55:30.307Z,80.03
2022-12-31T03:57:57.124Z,79.74
2022-12-31T04:00:23.894Z,79.57
2022-12-31T04:02:51.001Z,78.90
2022-12-31T04:05:18.496Z,79.87
2022-12-31T04:07:45.282Z,79.19
2022-12-31T04:10:13.795Z,79.26
2022-12-31T04:12:40.861Z,79.42
2022-12-31T04:15:08.862Z,79.82
2022-12-31T04:17:35.799Z,79.92
2022-12-31T04:20:03.482Z,79.52
2022-12-31T04:22:30.353Z,79.96
2022-12-31T04:24:57.353Z,79.96
2022-12-31T04:27:24.121Z,80.72
2022-12-31T04:29:50.967Z,81.19
2022-12-31T04:32:17.797Z,81.26
2022-12-31T04:34:44.649Z,81.88
2022-12-31T04:37:11.512Z,80.72
2022-12-31T04:39:38.366Z,80.87
2022-12-31T04:42:05.235Z,80.72
2022-12-31T04:44:34.954Z,80.16
2022-12-31T04:47:02.135Z,81.17
2022-12-31T04:49:29.031Z,81.19
2022-12-31T04:51:55.818Z,80.60
2022-12-31T04:54:22.730Z,81.02
2022-12-31T04:56:49.500Z,80.71
2022-12-31T04:59:16.254Z,80.57
2022-12-31T05:01:43.139Z,80.68
2022-12-31T05:04:09.966Z,81.04
2022-12-31T05:06:36.847Z,81.97
2022-12-31T05:09:03.836Z,81.32
2022-12-31T05:11:30.620Z,81.96
2022-12-31T05:13:57.460Z,83.02
2022-12-31T05:16:24.384Z,82.69
2022-12-31T05:18:51.179Z,81.66
2022-12-31T05:21:21.294Z,82.50
2022-12-31T05:23:49.091Z,82.42
2022-12-31T05:26:16.141Z,81.88
2022-12-31T05:28:43.017Z,82.62
2022-12-31T05:31:10.539Z,81.98
2022-12-31T05:33:37.424Z,80.82
2022-12-31T05:36:04.544Z,80.08
2022-12-31T05:38:31.341Z,80.46
2022-12-31T05:41:03.053Z,80.83
2022-12-31T05:43:30.195Z,79.70
2022-12-31T05:45:57.094Z,80.02
2022-12-31T05:48:24.036Z,80.67
2022-12-31T05:50:51.133Z,80.16
2022-12-31T05:53:18.021Z,80.38
2022-12-31T05:55:48.459Z,78.98
2022-12-31T06:01:00.334Z,80.38
2022-12-31T06:03:27.155Z,80.53
2022-12-31T06:05:53.989Z,81.05
2022-12-31T06:08:20.756Z,83.54
2022-12-31T06:10:47.617Z,90.68
2022-12-31T06:13:14.406Z,89.33
2022-12-31T06:15:41.259Z,79.78
2022-12-31T06:18:08.212Z,79.47
2022-12-31T06:20:38.665Z,79.11
2022-12-31T06:23:06.134Z,78.67
2022-12-31T06:25:35.187Z,78.71
2022-12-31T06:28:01.895Z,79.20
2022-12-31T06:30:28.669Z,79.03
2022-12-31T06:32:55.909Z,79.98
2022-12-31T06:35:22.843Z,81.35
2022-12-31T06:37:49.882Z,82.40
2022-12-31T06:40:16.739Z,82.43
2022-12-31T06:42:43.607Z,82.33
2022-12-31T06:45:10.905Z,82.41
2022-12-31T06:47:37.839Z,82.42
2022-12-31T06:50:05.096Z,82.38
2022-12-31T06:52:31.907Z,81.25
2022-12-31T06:54:59.190Z,81.15
2022-12-31T06:57:26.378Z,80.85
2022-12-31T06:59:53.619Z,80.81
2022-12-31T07:02:39.520Z,81.32
2022-12-31T07:05:15.486Z,80.59
2022-12-31T07:07:45.347Z,81.15
2022-12-31T07:10:18.559Z,81.11
2022-12-31T07:13:09.087Z,81.56
2022-12-31T07:16:08.211Z,80.42
2022-12-31T07:19:12.549Z,80.33
2022-12-31T07:21:42.271Z,79.59
2022-12-31T07:24:10.607Z,78.52
2022-12-31T07:26:56.376Z,77.87
2022-12-31T07:29:46.878Z,76.07
2022-12-31T07:32:38.231Z,76.12
2022-12-31T07:35:20.070Z,75.42
2022-12-31T07:38:17.519Z,74.13
2022-12-31T07:41:09.329Z,73.07
2022-12-31T07:43:48.887Z,69.36
2022-12-31T07:46:24.801Z,66.96
2022-12-31T07:48:52.039Z,64.15
2022-12-31T07:51:19.066Z,64.02
2022-12-31T07:53:45.956Z,60.97
2022-12-31T07:56:13.322Z,59.92
2022-12-31T07:58:40.015Z,56.17
2022-12-31T08:01:12.740Z,51.80
2022-12-31T08:03:58.420Z,47.72
2022-12-31T08:06:39.250Z,42.54
2022-12-31T08:09:41.632Z,39.51
2022-12-31T08:12:09.070Z,38.33
2022-12-31T08:14:43.766Z,39.65
2022-12-31T08:17:13.467Z,42.20
2022-12-31T08:19:41.318Z,41.61
2022-12-31T08:22:12.931Z,40.95
2022-12-31T08:25:03.529Z,39.03
2022-12-31T08:27:59.835Z,36.38
2022-12-31T08:30:49.534Z,35.47
2022-12-31T08:33:37.399Z,34.23
2022-12-31T08:36:29.414Z,34.14
2022-12-31T08:39:33.840Z,33.36
2022-12-31T08:42:04.285Z,33.85
2022-12-31T08:44:39.910Z,35.10
2022-12-31T08:47:31.899Z,36.94
2022-12-31T08:50:02.839Z,38.27
2022-12-31T08:52:30.328Z,38.00
2022-12-31T08:54:57.425Z,38.05
2022-12-31T08:57:50.653Z,38.58
2022-12-31T09:00:19.513Z,38.25
2022-12-31T09:03:24.611Z,36.64
2022-12-31T09:06:16.052Z,36.36
2022-12-31T09:08:55.013Z,36.61
2022-12-31T09:11:37.192Z,35.61
2022-12-31T09:14:06.818Z,34.15
2022-12-31T09:16:43.425Z,34.03
2022-12-31T09:19:10.576Z,33.81
2022-12-31T09:21:38.306Z,33.09
2022-12-31T09:24:09.334Z,32.49
2022-12-31T09:27:02.761Z,32.01
2022-12-31T09:29:57.633Z,30.70
2022-12-31T09:32:30.910Z,31.17
2022-12-31T09:35:28.179Z,30.99
2022-12-31T09:38:20.627Z,30.01
2022-12-31T09:40:50.066Z,30.06
2022-12-31T09:43:30.573Z,30.30
2022-12-31T09:46:29.772Z,29.63
2022-12-31T09:49:38.815Z,29.85
2022-12-31T09:52:25.880Z,29.80
2022-12-31T09:54:55.538Z,29.73
2022-12-31T09:57:27.333Z,29.65
2022-12-31T10:00:05.716Z,28.84
2022-12-31T10:02:52.884Z,29.58
2022-12-31T10:05:41.151Z,29.39
2022-12-31T10:08:30.234Z,29.08
2022-12-31T10:11:06.595Z,27.95
2022-12-31T10:13:33.392Z,27.16
2022-12-31T10:16:14.341Z,27.06
2022-12-31T10:19:13.340Z,27.33
2022-12-31T10:21:54.947Z,26.08
2022-12-31T10:24:53.837Z,25.44
2022-12-31T10:27:23.655Z,26.26
2022-12-31T10:29:59.062Z,25.62
2022-12-31T10:32:40.522Z,24.98
2022-12-31T10:35:32.431Z,24.80
2022-12-31T10:38:20.322Z,24.36
2022-12-31T10:41:05.626Z,24.76
2022-12-31T10:44:09.737Z,24.29
2022-12-31T10:47:07.197Z,23.78
2022-12-31T10:49:39.900Z,23.58
2022-12-31T10:52:44.113Z,24.38
2022-12-31T10:55:32.903Z,25.19
2022-12-31T10:58:11.820Z,25.22
2022-12-31T11:01:17.730Z,26.15
2022-12-31T11:04:14.944Z,26.62
2022-12-31T11:06:50.621Z,26.75
2022-12-31T11:09:50.095Z,27.28
2022-12-31T11:12:38.165Z,27.90
2022-12-31T11:15:13.932Z,28.20
2022-12-31T11:17:46.931Z,28.59
2022-12-31T11:20:25.872Z,28.38
2022-12-31T11:22:58.556Z,27.30
2022-12-31T11:25:47.767Z,27.68
2022-12-31T11:28:42.601Z,27.81
2022-12-31T11:31:18.987Z,28.62
2022-12-31T11:33:57.740Z,28.16
2022-12-31T11:36:30.226Z,28.06
2022-12-31T11:39:30.802Z,27.67
2022-12-31T11:42:07.919Z,27.87
2022-12-31T11:44:45.376Z,27.75
2022-12-31T11:47:56.514Z,27.82
2022-12-31T11:50:46.848Z,28.16
2022-12-31T11:53:24.053Z,28.62
2022-12-31T11:55:56.918Z,29.13
2022-12-31T11:58:28.722Z,29.51
2022-12-31T12:01:05.977Z,29.44
2022-12-31T12:03:33.201Z,29.53
2022-12-31T12:06:00.047Z,29.05
2022-12-31T12:08:30.937Z,29.33
2022-12-31T12:11:05.557Z,29.01
2022-12-31T12:13:32.862Z,29.92
2022-12-31T12:16:02.129Z,30.72
2022-12-31T12:18:40.979Z,31.10
2022-12-31T12:21:19.209Z,31.04
2022-12-31T12:24:04.449Z,31.75
2022-12-31T12:26:42.337Z,32.34
2022-12-31T12:29:18.396Z,32.81
2022-12-31T12:32:05.002Z,32.63
2022-12-31T12:34:34.314Z,32.33
2022-12-31T12:37:01.287Z,32.01
2022-12-31T12:39:32.314Z,32.46
2022-12-31T12:42:08.605Z,33.28
2022-12-31T12:44:38.491Z,33.59
2022-12-31T12:47:06.941Z,33.84
2022-12-31T12:49:42.168Z,34.15
2022-12-31T12:52:11.946Z,33.99
2022-12-31T12:54:57.210Z,34.05
2022-12-31T12:57:35.094Z,33.65
2022-12-31T13:00:19.301Z,33.36
2022-12-31T13:02:52.362Z,33.24
2022-12-31T13:05:40.488Z,33.28
2022-12-31T13:08:37.153Z,33.69
2022-12-31T13:11:29.512Z,33.78
2022-12-31T13:14:28.293Z,34.22
2022-12-31T13:17:18.764Z,36.14
2022-12-31T13:19:45.537Z,37.01
2022-12-31T13:22:29.877Z,37.58
2022-12-31T13:25:23.853Z,38.08
2022-12-31T13:27:52.743Z,39.02
2022-12-31T13:30:28.719Z,39.73
2022-12-31T13:33:04.048Z,40.64
2022-12-31T13:35:39.652Z,40.48
2022-12-31T13:38:28.579Z,40.71
2022-12-31T13:41:04.370Z,42.01
2022-12-31T13:43:51.149Z,43.20
2022-12-31T13:46:24.093Z,43.78
2022-12-31T13:48:54.813Z,44.84
2022-12-31T13:51:30.081Z,46.00
2022-12-31T13:54:35.575Z,45.47
2022-12-31T13:57:06.113Z,45.27
2022-12-31T13:59:38.585Z,45.75
2022-12-31T14:02:39.378Z,47.10
2022-12-31T14:05:16.271Z,47.25
2022-12-31T14:08:05.002Z,48.97
2022-12-31T14:10:31.712Z,50.33
2022-12-31T14:13:34.301Z,51.40
2022-12-31T14:16:01.616Z,51.88
2022-12-31T14:18:46.236Z,52.34
2022-12-31T14:21:24.446Z,52.60
2022-12-31T14:24:16.185Z,54.07
2022-12-31T14:26:53.170Z,54.78
2022-12-31T14:29:59.840Z,55.36
2022-12-31T14:32:26.580Z,55.89
2022-12-31T14:35:14.899Z,56.78
2022-12-31T14:38:05.916Z,57.35
2022-12-31T14:40:53.275Z,58.00
2022-12-31T14:43:32.160Z,58.53
2022-12-31T14:46:26.675Z,59.17
2022-12-31T14:49:05.478Z,59.50
2022-12-31T14:51:35.234Z,59.53
2022-12-31T14:54:02.226Z,59.56
2022-12-31T14:56:38.080Z,59.15
2022-12-31T14:59:27.819Z,58.87
2022-12-31T15:01:55.364Z,59.49
2022-12-31T15:04:45.631Z,59.46
2022-12-31T15:07:31.558Z,60.29
2022-12-31T15:10:14.986Z,61.58
2022-12-31T15:12:44.993Z,61.49
2022-12-31T15:15:33.632Z,62.22
2022-12-31T15:18:10.442Z,61.95
2022-12-31T15:20:37.170Z,62.05
2022-12-31T15:23:13.703Z,61.68
2022-12-31T15:25:47.224Z,61.68
2022-12-31T15:28:31.070Z,61.21
2022-12-31T15:31:19.899Z,60.92
2022-12-31T15:34:07.485Z,61.24
2022-12-31T15:36:41.504Z,62.32
2022-12-31T15:39:11.268Z,62.59
2022-12-31T15:41:46.104Z,62.62
2022-12-31T15:44:27.553Z,63.52
2022-12-31T15:46:58.291Z,62.97
2022-12-31T15:49:25.764Z,64.58
2022-12-31T15:52:02.493Z,64.61
2022-12-31T15:54:40.575Z,64.25
2022-12-31T15:57:13.869Z,63.77
2022-12-31T15:59:40.918Z,64.31
2022-12-31T16:02:39.294Z,64.17
2022-12-31T16:05:06.553Z,64.20
2022-12-31T16:07:35.298Z,63.77
2022-12-31T16:10:02.004Z,64.09
2022-12-31T16:12:34.450Z,63.74
2022-12-31T16:15:04.989Z,63.69
2022-12-31T16:17:35.855Z,63.54
2022-12-31T16:20:22.676Z,64.28
2022-12-31T16:22:56.307Z,64.55
2022-12-31T16:25:32.289Z,64.31
2022-12-31T16:28:01.757Z,64.23
2022-12-31T16:30:29.431Z,63.95
2022-12-31T16:33:01.202Z,64.34
2022-12-31T16:35:33.144Z,64.62
2022-12-31T16:38:02.160Z,64.58
2022-12-31T16:40:29.181Z,65.22
2022-12-31T16:42:55.936Z,65.92
2022-12-31T16:45:36.840Z,65.81
2022-12-31T16:48:17.207Z,65.94
2022-12-31T16:50:50.088Z,66.39
2022-12-31T16:53:20.034Z,66.92
2022-12-31T16:55:56.266Z,66.76
2022-12-31T16:58:22.930Z,66.06
2022-12-31T17:00:50.662Z,66.04
2022-12-31T17:03:24.402Z,66.75
2022-12-31T17:05:56.269Z,67.11
2022-12-31T17:08:26.134Z,66.85
2022-12-31T17:10:53.226Z,66.45
2022-12-31T17:13:29.819Z,65.64
2022-12-31T17:15:58.099Z,65.71
2022-12-31T17:18:28.390Z,65.42
2022-12-31T17:20:55.463Z,64.94
2022-12-31T17:23:31.420Z,66.00
2022-12-31T17:26:00.929Z,66.41
2022-12-31T17:28:30.533Z,65.81
2022-12-31T17:31:01.962Z,65.39
2022-12-31T17:33:30.556Z,66.65
2022-12-31T17:36:14.450Z,67.45
2022-12-31T17:38:42.078Z,66.51
2022-12-31T17:41:08.767Z,66.96
2022-12-31T17:43:37.071Z,66.66
2022-12-31T17:46:10.423Z,67.25
2022-12-31T17:48:37.567Z,67.99
2022-12-31T17:51:04.696Z,68.00
2022-12-31T17:53:31.488Z,69.25
2022-12-31T17:56:02.390Z,69.49
2022-12-31T17:58:38.377Z,69.53
2022-12-31T18:01:06.611Z,69.58
2022-12-31T18:03:33.469Z,69.80
2022-12-31T18:06:00.281Z,69.58
2022-12-31T18:08:27.118Z,70.55
2022-12-31T18:10:54.262Z,70.42
2022-12-31T18:13:23.828Z,70.63
2022-12-31T18:15:50.689Z,71.25
2022-12-31T18:18:25.234Z,71.07
2022-12-31T18:21:04.533Z,72.04
2022-12-31T18:23:48.413Z,73.01
2022-12-31T18:26:23.865Z,72.84
2022-12-31T18:28:50.930Z,72.37
2022-12-31T18:31:29.248Z,72.55
2022-12-31T18:33:57.620Z,72.41
2022-12-31T18:36:25.410Z,71.79
2022-12-31T18:38:52.960Z,71.22
2022-12-31T18:41:26.928Z,71.36
2022-12-31T18:43:54.829Z,71.30
2022-12-31T18:46:23.787Z,70.69
2022-12-31T18:48:50.754Z,70.33
2022-12-31T18:51:31.059Z,70.93
2022-12-31T18:54:14.697Z,71.64
2022-12-31T18:56:47.624Z,71.65
2022-12-31T18:59:17.227Z,71.25
2022-12-31T19:01:44.324Z,72.44
2022-12-31T19:04:27.574Z,71.42
2022-12-31T19:06:56.109Z,72.37
2022-12-31T19:09:44.679Z,72.59
2022-12-31T19:12:13.693Z,73.16
2022-12-31T19:14:40.642Z,73.06
2022-12-31T19:19:34.829Z,73.39
2022-12-31T19:22:02.751Z,73.86
2022-12-31T19:24:29.780Z,74.24
2022-12-31T19:26:56.567Z,74.16
2022-12-31T19:29:25.291Z,73.84
2022-12-31T19:31:52.433Z,73.95
2022-12-31T19:34:19.224Z,73.81
2022-12-31T19:36:46.038Z,74.38
2022-12-31T19:39:18.582Z,74.09
2022-12-31T19:41:45.682Z,73.75
2022-12-31T19:44:21.586Z,73.85
2022-12-31T19:46:49.431Z,73.52
2022-12-31T19:49:16.568Z,72.78
2022-12-31T19:51:43.461Z,72.84
2022-12-31T19:54:12.968Z,73.17
2022-12-31T19:56:39.779Z,72.06
2022-12-31T19:59:08.803Z,72.44
2022-12-31T20:01:35.944Z,72.57
2022-12-31T20:04:04.658Z,72.92
2022-12-31T20:06:31.469Z,73.31
2022-12-31T20:08:58.374Z,73.84
2022-12-31T20:11:25.300Z,73.48
2022-12-31T20:13:53.663Z,74.31
2022-12-31T20:16:22.610Z,73.80
2022-12-31T20:18:50.749Z,74.14
2022-12-31T20:21:23.416Z,74.26
2022-12-31T20:23:51.189Z,74.02
2022-12-31T20:26:19.044Z,74.53
2022-12-31T20:28:46.066Z,74.35
2022-12-31T20:31:15.330Z,74.55
2022-12-31T20:33:42.160Z,74.87
2022-12-31T20:36:10.973Z,73.90
2022-12-31T20:38:37.730Z,73.65
2022-12-31T20:41:09.250Z,74.15
2022-12-31T20:43:36.518Z,75.36
2022-12-31T20:46:16.302Z,75.48
2022-12-31T20:48:44.358Z,75.46
2022-12-31T20:51:12.208Z,74.69
2022-12-31T20:53:39.129Z,74.43
2022-12-31T20:56:07.046Z,75.03
2022-12-31T20:58:34.531Z,75.87
2022-12-31T21:01:01.572Z,74.46
2022-12-31T21:04:03.804Z,75.38
2022-12-31T21:06:15.855Z,75.63
2022-12-31T21:08:43.172Z,75.47
2022-12-31T21:11:29.044Z,75.54
2022-12-31T21:13:58.697Z,75.74
2022-12-31T21:16:26.560Z,75.65
2022-12-31T21:18:54.281Z,74.55
2022-12-31T21:21:21.625Z,75.42
2022-12-31T21:23:48.431Z,74.95
2022-12-31T21:26:15.540Z,75.23
2022-12-31T21:28:42.529Z,74.58
2022-12-31T21:31:12.032Z,74.92
2022-12-31T21:33:39.066Z,74.42
2022-12-31T21:36:06.056Z,73.86
2022-12-31T21:38:36.208Z,74.05
2022-12-31T21:41:04.230Z,73.69
2022-12-31T21:43:31.074Z,73.90
2022-12-31T21:46:05.152Z,74.58
2022-12-31T21:48:32.296Z,74.20
2022-12-31T21:51:08.037Z,74.21
2022-12-31T21:53:37.247Z,73.67
2022-12-31T21:56:16.118Z,74.36
2022-12-31T21:59:08.051Z,73.37
2022-12-31T22:01:53.724Z,73.63
2022-12-31T22:04:51.626Z,73.29
2022-12-31T22:07:07.599Z,72.48
2022-12-31T22:09:34.511Z,73.08
2022-12-31T22:12:01.324Z,73.31
2022-12-31T22:14:28.076Z,73.31
2022-12-31T22:16:54.931Z,73.13
2022-12-31T22:19:21.682Z,73.03
2022-12-31T22:21:48.537Z,73.03
2022-12-31T22:24:15.219Z,73.64
2022-12-31T22:26:46.513Z,73.88
2022-12-31T22:29:13.765Z,74.30
2022-12-31T22:31:40.673Z,74.60
2022-12-31T22:34:07.591Z,74.84
2022-12-31T22:36:35.022Z,74.43
2022-12-31T22:39:01.727Z,74.70
2022-12-31T22:41:29.078Z,75.63
2022-12-31T22:44:03.541Z,75.44
2022-12-31T22:46:31.934Z,75.54
2022-12-31T22:48:59.890Z,75.16
2022-12-31T22:51:54.947Z,75.13
2022-12-31T22:54:14.581Z,75.55
2022-12-31T22:56:41.615Z,75.79
2022-12-31T22:59:09.328Z,75.49
2022-12-31T23:01:36.498Z,75.69
2022-12-31T23:04:03.876Z,75.85
2022-12-31T23:06:30.955Z,75.17
2022-12-31T23:09:16.198Z,75.50
2022-12-31T23:11:43.630Z,75.53
2022-12-31T23:14:34.404Z,76.14
2022-12-31T23:17:30.253Z,75.86
2022-12-31T23:20:18.196Z,76.14
2022-12-31T23:23:04.060Z,76.54
2022-12-31T23:25:41.873Z,76.64
2022-12-31T23:28:11.391Z,75.67
2022-12-31T23:30:39.539Z,77.16
2022-12-31T23:33:07.415Z,77.31
2022-12-31T23:35:34.475Z,76.60
2022-12-31T23:38:01.305Z,77.23
2022-12-31T23:40:34.398Z,77.69
2022-12-31T23:43:05.590Z,77.49
2022-12-31T23:45:33.678Z,77.85
2022-12-31T23:48:00.725Z,77.90
2022-12-31T23:50:27.587Z,77.59
2022-12-31T23:52:54.472Z,77.96
2022-12-31T23:55:21.519Z,78.35
2022-12-31T23:57:48.274Z,78.05
